Time;durP1;ratioP1;P1;durP2;ratioP2;P2;SDS_P1;SDS_P2;PMS_P1;PMS_P2;Temp;Humidity;BMP_temperature;BMP_pressure;BME280_temperature;BME280_humidity;BME280_pressure;Samples;Min_cycle;Max_cycle;Signal;HPM_P1;HPM_P2
2022/06/09 00:00:06;;;;;;;5.47;2.20;;;;;;;18.66;56.44;99151.69;1723639;83;21050;-76
2022/06/09 00:02:35;;;;;;;2.00;1.90;;;;;;;18.63;56.90;99153.27;1701517;84;21137;-75
2022/06/09 00:05:04;;;;;;;2.77;2.20;;;;;;;18.59;56.84;99151.78;1723476;83;21061;-75
2022/06/09 00:07:31;;;;;;;3.90;2.12;;;;;;;18.53;56.95;99143.27;1701405;84;21070;-76
2022/06/09 00:10:01;;;;;;;2.55;2.22;;;;;;;18.50;57.12;99146.16;1723796;83;21629;-76
2022/06/09 00:12:27;;;;;;;2.17;1.90;;;;;;;18.48;57.24;99145.43;1723827;83;21018;-75
2022/06/09 00:14:56;;;;;;;5.45;2.40;;;;;;;18.43;57.42;99148.08;1723667;83;21024;-76
2022/06/09 00:17:24;;;;;;;3.87;2.20;;;;;;;18.38;57.61;99139.08;1701099;84;21525;-76
2022/06/09 00:19:51;;;;;;;4.30;1.95;;;;;;;18.30;57.82;99141.45;1723952;83;21040;-75
2022/06/09 00:22:18;;;;;;;2.40;2.17;;;;;;;18.27;58.36;99146.98;1703433;84;21833;-76
2022/06/09 00:24:44;;;;;;;2.40;2.20;;;;;;;18.20;57.40;99146.58;1674622;85;21557;-76
2022/06/09 00:27:11;;;;;;;4.83;2.20;;;;;;;18.15;57.95;99144.23;1704142;84;21077;-76
2022/06/09 00:29:37;;;;;;;2.45;2.25;;;;;;;18.11;58.13;99142.77;1732334;82;20993;-76
2022/06/09 00:32:04;;;;;;;3.70;2.10;;;;;;;18.07;58.34;99139.97;1732275;82;21419;-75
2022/06/09 00:34:31;;;;;;;8.25;2.40;;;;;;;18.03;58.45;99137.14;1704012;84;21137;-76
2022/06/09 00:36:58;;;;;;;2.72;2.00;;;;;;;18.01;58.55;99140.41;1724305;83;21108;-76
2022/06/09 00:39:25;;;;;;;7.45;2.80;;;;;;;17.98;59.02;99139.28;1724183;83;21057;-76
2022/06/09 00:41:51;;;;;;;4.25;2.30;;;;;;;17.94;59.31;99141.81;1724100;83;21313;-75
2022/06/09 00:44:27;;;;;;;3.92;2.10;;;;;;;17.88;59.18;99139.57;1724106;83;21092;-75
2022/06/09 00:47:10;;;;;;;1.98;1.77;;;;;;;17.81;59.08;99134.64;1724445;83;21772;-76
2022/06/09 00:49:45;;;;;;;2.33;2.12;;;;;;;17.77;59.27;99133.63;1698758;84;21135;-76
2022/06/09 00:52:14;;;;;;;;;;;;;;;17.69;59.46;99135.52;1676757;85;21384;-76
2022/06/09 00:54:44;;;;;;;2.85;2.08;;;;;;;17.63;59.79;99130.16;1732156;82;20196;-75
2022/06/09 00:57:22;;;;;;;2.35;1.98;;;;;;;17.56;60.11;99130.19;1732242;82;20989;-76
2022/06/09 00:59:54;;;;;;;2.30;1.95;;;;;;;17.52;60.07;99133.20;1732227;82;21073;-75
2022/06/09 01:02:20;;;;;;;2.55;2.20;;;;;;;17.50;60.25;99136.41;1704168;83;21023;-76
2022/06/09 01:04:49;;;;;;;4.55;2.60;;;;;;;17.45;60.33;99140.26;1724206;82;21060;-76
2022/06/09 01:07:20;;;;;;;3.80;2.35;;;;;;;17.44;60.30;99143.02;1724337;83;21634;-76
2022/06/09 01:09:47;;;;;;;5.28;2.35;;;;;;;17.43;59.87;99146.63;1724228;82;21540;-76
2022/06/09 01:12:30;;;;;;;2.83;2.40;;;;;;;17.43;59.76;99142.63;1704381;84;21892;-76
2022/06/09 01:15:15;;;;;;;2.40;2.20;;;;;;;17.42;59.92;99145.78;1731961;82;22038;-76
2022/06/09 01:18:08;;;;;;;3.37;2.08;;;;;;;17.42;59.69;99147.11;1732268;82;21068;-76
2022/06/09 01:20:51;;;;;;;4.50;2.15;;;;;;;17.44;58.94;99138.55;1704138;84;21101;-76
2022/06/09 01:23:59;;;;;;;2.52;2.30;;;;;;;17.46;59.98;99141.94;1732142;82;21044;-76
2022/06/09 01:26:49;;;;;;;2.62;2.42;;;;;;;17.45;60.01;99146.91;1704199;84;21583;-76
2022/06/09 01:29:30;;;;;;;2.75;2.08;;;;;;;17.43;59.78;99150.16;1704170;84;21085;-76
2022/06/09 01:32:05;;;;;;;3.33;2.55;;;;;;;17.42;59.81;99145.78;1732117;82;21602;-76
2022/06/09 01:34:50;;;;;;;4.60;2.60;;;;;;;17.41;59.88;99146.73;1677492;84;21031;-76
2022/06/09 01:37:27;;;;;;;3.72;2.12;;;;;;;17.42;59.51;99148.45;1704319;84;26615;-76
2022/06/09 01:39:57;;;;;;;5.78;2.08;;;;;;;17.42;60.22;99140.47;1727146;82;21852;-76
2022/06/09 01:42:34;;;;;;;4.85;2.20;;;;;;;17.41;60.38;99137.42;1704313;84;21613;-76
2022/06/09 01:45:15;;;;;;;2.60;2.40;;;;;;;17.38;60.28;99146.97;1705511;84;21113;-76
2022/06/09 01:47:54;;;;;;;2.80;2.60;;;;;;;17.37;60.75;99145.25;1677624;84;21036;-76
2022/06/09 01:50:37;;;;;;;4.17;2.47;;;;;;;17.33;60.69;99143.77;1728125;83;21056;-76
2022/06/09 01:53:10;;;;;;;3.55;2.72;;;;;;;17.30;61.10;99146.64;1707745;84;21242;-76
2022/06/09 01:55:40;;;;;;;3.00;2.80;;;;;;;17.25;61.18;99146.10;1684768;84;22165;-76
2022/06/09 01:58:07;;;;;;;4.90;3.20;;;;;;;17.23;61.17;99144.88;1707601;84;21008;-76
2022/06/09 02:00:33;;;;;;;3.12;2.80;;;;;;;17.21;61.33;99147.25;1708078;84;21021;-76
2022/06/09 02:03:13;;;;;;;3.40;2.60;;;;;;;17.20;61.37;99142.91;1683296;84;21155;-76
2022/06/09 02:05:44;;;;;;;3.27;2.92;;;;;;;17.19;61.45;99147.84;1707455;84;21383;-76
2022/06/09 02:08:14;;;;;;;3.92;2.90;;;;;;;17.18;61.46;99152.77;1704979;83;21514;-76
2022/06/09 02:10:44;;;;;;;2.98;2.70;;;;;;;17.15;61.58;99152.52;1707673;84;21139;-76
2022/06/09 02:13:18;;;;;;;4.75;2.98;;;;;;;17.15;61.95;99151.67;1708023;84;21127;-76
2022/06/09 02:15:47;;;;;;;3.47;2.73;;;;;;;17.14;61.77;99150.80;1728080;83;21054;-77
2022/06/09 02:18:19;;;;;;;4.65;2.80;;;;;;;17.15;61.96;99152.52;1707744;84;21055;-76
2022/06/09 02:20:59;;;;;;;2.85;2.45;;;;;;;17.13;62.28;99154.89;1707561;84;21096;-76
2022/06/09 02:23:26;;;;;;;3.22;2.92;;;;;;;17.11;62.39;99148.83;1697131;84;21536;-76
2022/06/09 02:25:52;;;;;;;6.03;3.40;;;;;;;17.11;62.07;99154.14;1667431;85;21133;-76
2022/06/09 02:28:20;;;;;;;5.75;2.70;;;;;;;17.13;61.75;99153.11;1667285;86;21102;-76
2022/06/09 02:30:47;;;;;;;5.03;2.95;;;;;;;17.18;61.74;99157.63;1667412;85;21172;-75
2022/06/09 02:33:14;;;;;;;4.33;2.70;;;;;;;17.20;61.51;99156.20;1667203;85;21562;-76
2022/06/09 02:35:41;;;;;;;3.92;2.80;;;;;;;17.22;61.75;99160.92;1667391;85;21585;-76
2022/06/09 02:38:08;;;;;;;7.80;2.98;;;;;;;17.24;61.84;99167.83;1667615;86;22076;-76
2022/06/09 02:40:35;;;;;;;3.37;2.72;;;;;;;17.26;62.05;99169.05;1667652;86;21621;-76
2022/06/09 02:43:01;;;;;;;6.72;2.72;;;;;;;17.27;61.08;99168.11;1667646;85;21323;-76
2022/06/09 02:45:29;;;;;;;3.60;3.02;;;;;;;17.32;60.97;99176.63;1667430;85;21078;-75
2022/06/09 02:47:55;;;;;;;6.22;2.65;;;;;;;17.38;60.31;99178.00;1667537;86;21070;-76
2022/06/09 02:50:22;;;;;;;4.85;2.72;;;;;;;17.44;59.74;99175.78;1667486;86;21019;-76
2022/06/09 02:52:49;;;;;;;6.60;2.70;;;;;;;17.53;60.20;99182.27;1667664;85;21074;-76
2022/06/09 02:55:15;;;;;;;11.45;2.87;;;;;;;17.60;59.69;99176.05;1667496;86;22425;-76
2022/06/09 02:57:44;;;;;;;6.10;2.70;;;;;;;17.73;59.25;99180.05;1667524;85;21605;-76
2022/06/09 03:00:14;;;;;;;7.42;2.90;;;;;;;17.82;59.05;99167.45;1667294;86;21107;-76
2022/06/09 03:02:43;;;;;;;2.67;2.37;;;;;;;17.91;60.19;99173.96;1681155;85;21081;-76
2022/06/09 03:05:11;;;;;;;11.83;2.75;;;;;;;17.95;59.76;99174.10;1667397;85;21099;-76
2022/06/09 03:07:37;;;;;;;3.12;2.40;;;;;;;18.00;59.80;99175.50;1681090;85;21096;-76
2022/06/09 03:10:04;;;;;;;3.45;2.58;;;;;;;18.07;60.11;99176.38;1667273;86;21070;-76
2022/06/09 03:12:31;;;;;;;2.50;2.30;;;;;;;18.13;59.75;99179.45;1667657;85;21086;-76
2022/06/09 03:14:57;;;;;;;3.87;2.27;;;;;;;18.20;59.20;99177.20;1667371;86;21051;-77
2022/06/09 03:17:25;;;;;;;7.80;2.47;;;;;;;18.28;59.26;99178.84;1667400;86;21083;-76
2022/06/09 03:19:51;;;;;;;2.70;2.37;;;;;;;18.38;58.68;99185.20;1667770;86;21102;-76
2022/06/09 03:22:19;;;;;;;5.80;2.52;;;;;;;18.49;58.14;99180.91;1670750;85;21190;-76
2022/06/09 03:24:45;;;;;;;2.58;2.10;;;;;;;18.58;58.84;99181.58;1677017;85;21133;-76
2022/06/09 03:27:13;;;;;;;5.50;2.70;;;;;;;18.65;58.80;99181.48;1677155;85;21042;-77
2022/06/09 03:29:39;;;;;;;3.72;2.52;;;;;;;18.74;59.17;99181.28;1677403;85;21042;-76
2022/06/09 03:32:07;;;;;;;2.55;2.27;;;;;;;18.81;59.60;99183.89;1677049;85;21773;-76
2022/06/09 03:34:34;;;;;;;2.35;2.15;;;;;;;18.86;60.42;99180.89;1675885;85;21153;-76
2022/06/09 03:37:03;;;;;;;4.40;2.40;;;;;;;18.92;60.71;99181.78;1670125;85;21058;-76
2022/06/09 03:39:31;;;;;;;9.35;2.90;;;;;;;18.98;60.80;99182.66;1670004;85;21062;-76
2022/06/09 03:41:57;;;;;;;8.48;2.33;;;;;;;19.03;60.42;99182.30;1670044;85;21102;-76
2022/06/09 03:44:24;;;;;;;3.58;2.50;;;;;;;19.09;60.15;99172.52;1669976;85;21838;-76
2022/06/09 03:46:51;;;;;;;4.87;2.90;;;;;;;19.16;60.37;99175.07;1670141;85;21617;-76
2022/06/09 03:49:18;;;;;;;9.70;2.60;;;;;;;19.23;60.39;99171.00;1670110;85;21739;-76
2022/06/09 03:51:44;;;;;;;20.02;10.20;;;;;;;19.28;60.33;99168.83;1671478;85;21102;-76
2022/06/09 03:54:11;;;;;;;21.55;9.50;;;;;;;19.35;59.81;99171.88;1703261;84;21006;-75
2022/06/09 03:56:37;;;;;;;14.00;7.10;;;;;;;19.42;59.29;99175.77;1702733;84;21101;-76
2022/06/09 03:59:04;;;;;;;11.85;6.10;;;;;;;19.50;58.57;99163.15;1702778;84;21575;-76
2022/06/09 04:01:31;;;;;;;8.08;4.33;;;;;;;19.58;58.09;99167.41;1703153;84;21584;-76
2022/06/09 04:03:58;;;;;;;5.75;2.95;;;;;;;19.66;57.45;99162.83;1702766;84;22061;-76
2022/06/09 04:06:25;;;;;;;8.35;2.60;;;;;;;19.74;56.30;99160.41;1702738;84;21093;-76
2022/06/09 04:08:53;;;;;;;5.62;2.70;;;;;;;19.85;55.16;99156.45;1702856;84;21166;-76
2022/06/09 04:11:21;;;;;;;6.62;2.00;;;;;;;19.96;54.09;99158.26;1702704;84;21062;-76
2022/06/09 04:13:48;;;;;;;5.72;2.50;;;;;;;20.09;53.11;99162.61;1702921;84;21142;-76
2022/06/09 04:16:34;;;;;;;3.20;2.40;;;;;;;20.20;54.58;99153.27;1702877;84;21104;-76
2022/06/09 04:19:03;;;;;;;8.20;2.37;;;;;;;20.31;54.31;99153.25;1702860;84;21131;-76
2022/06/09 04:21:32;;;;;;;5.40;2.60;;;;;;;20.44;53.53;99146.91;1703034;84;21135;-76
2022/06/09 04:23:58;;;;;;;12.07;2.08;;;;;;;20.55;53.83;99146.88;1705730;84;21038;-76
2022/06/09 04:26:27;;;;;;;3.92;1.75;;;;;;;20.66;52.33;99142.88;1729436;82;20997;-77
2022/06/09 04:28:55;;;;;;;5.85;1.90;;;;;;;20.76;51.74;99150.50;1729292;83;20947;-77
2022/06/09 04:31:23;;;;;;;5.30;2.25;;;;;;;20.88;50.57;99145.08;1729419;82;20981;-76
2022/06/09 04:33:49;;;;;;;8.23;2.37;;;;;;;20.99;51.10;99143.70;1729497;83;21233;-76
2022/06/09 04:36:17;;;;;;;4.37;1.98;;;;;;;21.12;51.38;99151.06;1706181;84;21022;-76
2022/06/09 04:38:43;;;;;;;5.28;1.60;;;;;;;21.22;49.22;99136.92;1729377;82;20988;-76
2022/06/09 04:41:11;;;;;;;6.30;1.62;;;;;;;21.33;48.09;99142.19;1729578;82;20994;-76
2022/06/09 04:43:39;;;;;;;7.72;1.65;;;;;;;21.44;48.21;99142.12;1729829;82;21013;-77
2022/06/09 04:46:06;;;;;;;11.70;2.00;;;;;;;21.56;48.19;99146.10;1706186;83;21166;-77
2022/06/09 04:48:33;;;;;;;6.22;2.22;;;;;;;21.66;47.99;99144.32;1676292;85;21060;-76
2022/06/09 04:50:59;;;;;;;9.48;2.00;;;;;;;21.78;47.62;99143.24;1728006;82;20997;-76
2022/06/09 04:53:26;;;;;;;13.95;2.35;;;;;;;21.88;47.72;99144.12;1726090;83;21093;-76
2022/06/09 04:55:53;;;;;;;21.02;2.92;;;;;;;21.98;48.65;99144.17;1726053;83;20990;-77
2022/06/09 04:58:20;;;;;;;17.75;2.70;;;;;;;22.07;49.90;99143.84;1726328;83;21489;-77
2022/06/09 05:00:46;;;;;;;15.28;2.62;;;;;;;22.16;48.65;99146.23;1726073;83;21445;-76
2022/06/09 05:03:13;;;;;;;6.65;2.00;;;;;;;22.25;48.65;99148.91;1726514;83;21623;-77
2022/06/09 05:05:42;;;;;;;5.22;1.77;;;;;;;22.34;47.93;99147.30;1726115;83;21025;-76
2022/06/09 05:08:08;;;;;;;9.20;2.20;;;;;;;22.46;47.46;99153.39;1726646;82;21009;-76
2022/06/09 05:10:35;;;;;;;17.23;1.90;;;;;;;22.54;46.69;99153.52;1706354;84;21563;-77
2022/06/09 05:13:05;;;;;;;11.35;2.20;;;;;;;22.62;47.41;99144.79;1676453;85;21636;-77
2022/06/09 05:15:31;;;;;;;5.33;2.15;;;;;;;22.72;48.51;99146.15;1726438;82;21069;-77
2022/06/09 05:17:58;;;;;;;15.00;1.98;;;;;;;22.83;48.96;99147.37;1726302;82;21032;-76
2022/06/09 05:20:25;;;;;;;5.40;1.87;;;;;;;22.93;49.83;99145.53;1706400;84;21505;-77
2022/06/09 05:22:51;;;;;;;4.22;1.87;;;;;;;23.03;49.34;99141.98;1675345;85;21861;-77
2022/06/09 05:25:18;;;;;;;8.70;1.98;;;;;;;23.12;48.65;99142.52;1702671;84;21050;-76
2022/06/09 05:27:45;;;;;;;5.65;1.80;;;;;;;23.21;46.86;99145.67;1703153;84;21018;-77
2022/06/09 05:30:16;;;;;;;6.55;1.90;;;;;;;23.29;46.62;99141.77;1706761;84;21086;-76
2022/06/09 05:32:44;;;;;;;6.28;1.55;;;;;;;23.41;46.20;99146.99;1707420;84;21018;-77
2022/06/09 05:35:10;;;;;;;5.00;1.72;;;;;;;23.49;46.84;99137.72;1706911;84;21759;-77
2022/06/09 05:45:58;;;;;;;4.53;1.25;;;;;;;23.88;42.03;99152.39;1704820;84;21049;-76
2022/06/09 05:48:25;;;;;;;2.90;1.00;;;;;;;23.93;40.29;99143.39;1704185;84;21124;-77
2022/06/09 05:50:53;;;;;;;3.75;0.82;;;;;;;23.99;39.74;99145.50;1704343;84;21007;-77
2022/06/09 05:53:19;;;;;;;27.30;1.75;;;;;;;24.03;39.28;99152.26;1704149;84;21091;-77
2022/06/09 05:55:46;;;;;;;4.47;1.20;;;;;;;24.11;38.64;99145.64;1704424;84;21109;-77
2022/06/09 05:58:12;;;;;;;3.87;0.93;;;;;;;24.22;39.64;99150.47;1704504;84;21993;-77
2022/06/09 06:00:41;;;;;;;8.03;1.20;;;;;;;24.33;39.91;99147.59;1704439;84;21481;-77
2022/06/09 06:03:11;;;;;;;9.68;1.40;;;;;;;24.40;39.10;99155.39;1704660;84;21105;-77
2022/06/09 06:08:24;;;;;;;4.62;1.50;;;;;;;24.54;38.54;99149.98;1704434;84;21121;-76
2022/06/09 06:10:50;;;;;;;3.50;1.00;;;;;;;24.60;38.99;99154.80;1704511;84;21024;-77
2022/06/09 06:13:17;;;;;;;1.80;0.90;;;;;;;24.66;39.45;99153.33;1704760;84;21113;-77
2022/06/09 06:15:44;;;;;;;2.12;1.27;;;;;;;24.73;38.59;99155.78;1704329;84;22120;-76
2022/06/09 06:18:10;;;;;;;5.53;1.00;;;;;;;24.81;38.77;99157.21;1704577;84;22008;-77
2022/06/09 06:20:37;;;;;;;17.57;6.55;;;;;;;24.88;38.49;99154.75;1704269;84;21035;-77
2022/06/09 06:23:04;;;;;;;11.22;5.75;;;;;;;24.97;38.83;99158.36;1704134;84;21026;-77
2022/06/09 06:25:30;;;;;;;5.03;1.90;;;;;;;25.05;38.04;99153.05;1704208;84;21810;-77
2022/06/09 06:27:58;;;;;;;5.28;3.85;;;;;;;25.14;37.37;99154.80;1704229;84;21137;-77
2022/06/09 06:30:25;;;;;;;9.20;5.12;;;;;;;25.23;37.73;99155.70;1704386;84;21065;-78
2022/06/09 06:32:51;;;;;;;7.20;2.72;;;;;;;25.32;37.04;99158.02;1704173;84;21039;-77
2022/06/09 06:35:17;;;;;;;6.58;1.77;;;;;;;25.40;37.26;99151.31;1704328;84;21816;-77
2022/06/09 06:37:44;;;;;;;16.45;8.10;;;;;;;25.48;37.66;99144.64;1704241;84;21196;-78
2022/06/09 06:40:12;;;;;;;35.92;18.12;;;;;;;25.57;37.53;99151.80;1704448;84;21121;-77
2022/06/09 06:42:39;;;;;;;22.52;9.10;;;;;;;25.64;36.74;99143.05;1704383;84;21145;-77
2022/06/09 06:45:07;;;;;;;9.23;4.95;;;;;;;25.73;37.03;99145.64;1704451;84;21109;-76
2022/06/09 06:47:34;;;;;;;24.55;14.15;;;;;;;25.83;37.27;99146.05;1704571;84;21121;-77
2022/06/09 06:50:01;;;;;;;19.98;11.75;;;;;;;25.92;36.23;99145.94;1704249;84;22321;-76
2022/06/09 06:52:27;;;;;;;14.20;9.55;;;;;;;25.99;35.64;99143.47;1704275;84;21657;-77
2022/06/09 06:54:54;;;;;;;27.82;17.90;;;;;;;26.04;36.61;99142.97;1704675;84;21193;-77
2022/06/09 06:57:21;;;;;;;11.75;3.20;;;;;;;26.09;35.91;99139.28;1704555;84;21066;-77
2022/06/09 06:59:47;;;;;;;15.03;5.85;;;;;;;26.13;36.18;99144.70;1704519;84;21080;-76
2022/06/09 07:02:14;;;;;;;2.77;1.85;;;;;;;26.18;36.07;99141.02;1704378;84;21132;-77
2022/06/09 07:04:41;;;;;;;5.12;2.33;;;;;;;26.25;34.90;99143.39;1704325;84;21019;-77
2022/06/09 07:07:07;;;;;;;11.90;4.85;;;;;;;26.30;35.79;99143.74;1704558;84;21030;-78
2022/06/09 07:09:34;;;;;;;2.02;1.30;;;;;;;26.41;36.67;99147.14;1704310;84;21082;-77
2022/06/09 07:12:00;;;;;;;5.35;2.30;;;;;;;26.49;35.87;99149.39;1704466;84;21615;-77
2022/06/09 07:14:27;;;;;;;60.45;29.20;;;;;;;26.58;35.95;99148.03;1704397;84;21194;-76
2022/06/09 07:16:54;;;;;;;29.20;14.98;;;;;;;26.63;35.15;99145.23;1704654;84;20999;-78
2022/06/09 07:19:20;;;;;;;4.20;1.50;;;;;;;26.72;35.58;99150.13;1704332;84;21062;-76
2022/06/09 07:21:47;;;;;;;32.63;22.20;;;;;;;26.78;34.33;99151.30;1704389;84;21002;-77
2022/06/09 07:24:14;;;;;;;38.38;24.27;;;;;;;26.82;34.61;99152.68;1704198;84;21085;-77
2022/06/09 07:26:40;;;;;;;6.05;4.03;;;;;;;26.86;34.82;99149.97;1704546;84;21656;-77
2022/06/09 07:29:07;;;;;;;4.17;2.42;;;;;;;26.93;35.20;99150.98;1704461;84;21081;-77
2022/06/09 07:31:34;;;;;;;3.27;0.88;;;;;;;27.02;34.58;99162.14;1704208;84;21106;-77
2022/06/09 07:34:01;;;;;;;1.85;0.90;;;;;;;27.08;32.86;99158.43;1704582;84;21065;-77
2022/06/09 07:36:28;;;;;;;20.00;10.08;;;;;;;27.12;33.20;99159.77;1702506;84;21047;-77
2022/06/09 07:38:54;;;;;;;2.05;1.17;;;;;;;27.17;33.28;99157.44;1699781;84;21117;-77
2022/06/09 07:41:21;;;;;;;5.03;1.50;;;;;;;27.19;31.30;99160.29;1700119;84;21117;-78
2022/06/09 07:43:48;;;;;;;3.33;1.10;;;;;;;27.19;31.78;99158.94;1702842;84;21125;-78
2022/06/09 07:46:16;;;;;;;26.82;10.32;;;;;;;27.16;32.44;99163.32;1702551;84;21086;-77
2022/06/09 07:48:45;;;;;;;8.48;1.52;;;;;;;27.17;32.75;99157.44;1673487;85;21062;-78
2022/06/09 07:51:12;;;;;;;8.93;2.02;;;;;;;27.25;34.10;99158.76;1673395;85;21625;-77
2022/06/09 07:53:39;;;;;;;4.97;1.32;;;;;;;27.36;34.67;99169.26;1673315;85;21161;-78
2022/06/09 07:56:06;;;;;;;6.00;1.75;;;;;;;27.48;32.98;99163.52;1703003;84;21086;-78
2022/06/09 07:58:33;;;;;;;8.48;1.00;;;;;;;27.57;33.00;99153.02;1702907;84;21105;-77
2022/06/09 08:00:59;;;;;;;2.45;1.67;;;;;;;27.69;33.13;99150.31;1703275;84;21065;-76
2022/06/09 08:03:26;;;;;;;2.70;1.30;;;;;;;27.79;32.43;99159.06;1702864;84;21090;-77
2022/06/09 08:05:53;;;;;;;6.03;1.00;;;;;;;27.83;32.59;99150.61;1703187;84;21074;-78
2022/06/09 08:08:21;;;;;;;0.70;0.70;;;;;;;27.92;32.54;99156.31;1702749;84;21119;-78
2022/06/09 08:10:49;;;;;;;7.35;2.25;;;;;;;28.03;32.49;99155.98;1702824;84;21118;-77
2022/06/09 08:13:16;;;;;;;2.35;0.95;;;;;;;28.15;32.43;99151.87;1702801;84;21609;-77
2022/06/09 08:15:44;;;;;;;38.30;16.87;;;;;;;28.26;30.89;99149.79;1702929;84;21584;-78
2022/06/09 08:18:11;;;;;;;21.37;10.43;;;;;;;28.34;30.46;99151.11;1702897;84;21652;-78
2022/06/09 08:20:39;;;;;;;28.42;14.13;;;;;;;28.40;30.11;99157.17;1673130;85;21172;-77
2022/06/09 08:23:17;;;;;;;37.38;19.05;;;;;;;28.47;30.46;99160.84;1703022;84;21106;-77
2022/06/09 08:25:44;;;;;;;20.15;11.80;;;;;;;28.54;30.05;99155.56;1673224;85;21019;-77
2022/06/09 08:28:11;;;;;;;7.22;2.17;;;;;;;28.61;29.29;99157.92;1702796;84;21115;-77
2022/06/09 08:30:37;;;;;;;1.90;0.70;;;;;;;28.69;29.98;99156.52;1702885;84;21129;-77
2022/06/09 08:33:04;;;;;;;2.80;0.70;;;;;;;28.80;29.95;99159.34;1702768;84;21648;-78
2022/06/09 08:35:31;;;;;;;1.77;0.40;;;;;;;28.94;29.32;99150.11;1702786;84;21070;-77
2022/06/09 08:37:58;;;;;;;6.20;2.40;;;;;;;29.08;29.32;99156.08;1703258;84;21094;-77
2022/06/09 08:40:54;;;;;;;7.53;4.60;;;;;;;29.20;29.56;99162.80;1702795;84;21490;-77
2022/06/09 08:43:44;;;;;;;19.40;11.18;;;;;;;29.30;29.01;99160.34;1702972;84;21193;-77
2022/06/09 08:46:28;;;;;;;2.67;2.02;;;;;;;29.39;27.78;99148.41;1702786;84;21077;-77
2022/06/09 08:48:56;;;;;;;3.08;0.60;;;;;;;29.41;27.35;99149.89;1703340;84;21035;-78
2022/06/09 08:51:38;;;;;;;7.53;0.60;;;;;;;29.46;28.15;99146.64;1703067;84;21078;-77
2022/06/09 08:54:22;;;;;;;1.65;0.50;;;;;;;29.53;28.67;99159.78;1703235;84;21780;-78
2022/06/09 08:56:48;;;;;;;1.25;0.60;;;;;;;29.63;28.08;99142.73;1702971;84;21015;-77
2022/06/09 08:59:22;;;;;;;4.45;1.30;;;;;;;29.73;28.42;99147.05;1702922;84;21079;-77
2022/06/09 09:02:00;;;;;;;7.40;2.60;;;;;;;29.82;28.04;99139.17;1703260;84;21573;-77
2022/06/09 09:04:34;;;;;;;4.03;0.85;;;;;;;29.88;28.13;99146.56;1702848;84;21078;-77
2022/06/09 09:07:30;;;;;;;2.08;0.93;;;;;;;29.92;28.37;99145.67;1688442;84;39491;-78
2022/06/09 09:10:17;;;;;;;3.25;0.80;;;;;;;30.01;28.58;99133.71;1703154;84;21105;-77
2022/06/09 09:13:09;;;;;;;2.05;0.70;;;;;;;30.12;29.11;99136.45;1670069;84;21205;-78
2022/06/09 09:15:42;;;;;;;0.65;0.60;;;;;;;30.16;29.18;99137.73;1702986;84;21649;-77
2022/06/09 09:18:36;;;;;;;3.85;1.20;;;;;;;30.21;29.27;99138.02;1703221;84;21034;-77
2022/06/09 09:21:35;;;;;;;1.77;0.65;;;;;;;30.21;28.62;99143.44;1702500;84;22215;-77
2022/06/09 09:24:30;;;;;;;3.50;1.02;;;;;;;30.17;27.88;99134.01;1652034;83;21593;-78
2022/06/09 09:27:31;;;;;;;6.83;1.02;;;;;;;30.07;28.34;99135.66;1703479;84;23060;-77
2022/06/09 09:30:23;;;;;;;2.67;0.90;;;;;;;29.90;28.15;99142.31;1703427;84;21117;-78
2022/06/09 09:32:52;;;;;;;7.37;1.10;;;;;;;29.73;28.72;99141.10;1703596;84;21082;-78
2022/06/09 09:35:33;;;;;;;10.23;1.00;;;;;;;29.62;29.18;99142.42;1704656;82;21121;-77
2022/06/09 09:38:00;;;;;;;3.27;1.22;;;;;;;29.55;29.53;99142.81;1675884;85;21121;-77
2022/06/09 09:40:36;;;;;;;2.72;0.80;;;;;;;29.52;29.21;99136.42;1676299;85;21072;-78
2022/06/09 09:43:11;;;;;;;4.22;1.07;;;;;;;29.50;29.40;99140.33;1663528;85;21152;-77
2022/06/09 09:45:39;;;;;;;;;;;;;;;29.52;30.54;99135.56;1703729;84;21096;-77
2022/06/09 09:48:20;;;;;;;11.28;1.80;;;;;;;29.61;30.86;99128.52;1701641;84;20694;-77
2022/06/09 09:50:59;;;;;;;4.12;1.10;;;;;;;29.75;29.90;99131.43;1701398;83;20996;-77
2022/06/09 09:53:36;;;;;;;3.10;0.80;;;;;;;29.85;29.30;99128.48;1703134;84;21090;-78
2022/06/09 09:56:20;;;;;;;2.22;0.78;;;;;;;29.90;29.58;99126.88;1704551;84;21190;-77
2022/06/09 09:58:54;;;;;;;4.70;0.70;;;;;;;29.96;29.29;99127.48;1701861;84;21131;-77
2022/06/09 10:01:26;;;;;;;5.20;0.72;;;;;;;29.99;29.62;99118.98;1701888;84;21794;-78
2022/06/09 10:10:17;;;;;;;1.42;0.82;;;;;;;30.26;28.50;99113.03;1701815;84;21095;-77
2022/06/09 10:12:44;;;;;;;3.60;0.90;;;;;;;30.28;28.98;99122.67;1701912;84;21059;-76
2022/06/09 10:15:15;;;;;;;5.95;3.52;;;;;;;30.28;28.96;99126.75;1702138;84;21554;-77
2022/06/09 10:18:06;;;;;;;5.67;3.30;;;;;;;30.24;28.93;99121.88;1701658;83;21100;-76
2022/06/09 10:20:41;;;;;;;6.87;1.00;;;;;;;30.19;28.15;99116.52;1701297;83;21139;-77
2022/06/09 10:23:16;;;;;;;4.40;1.05;;;;;;;30.14;28.67;99121.68;1701934;83;21024;-78
2022/06/09 10:25:57;;;;;;;1.20;0.72;;;;;;;30.11;28.74;99118.47;1695892;84;21175;-78
2022/06/09 10:28:50;;;;;;;4.25;0.93;;;;;;;30.17;29.48;99113.66;1681670;84;22275;-77
2022/06/09 10:31:34;;;;;;;2.00;0.70;;;;;;;30.32;30.31;99114.98;1693300;84;21080;-78
2022/06/09 10:34:25;;;;;;;4.67;0.70;;;;;;;30.48;29.96;99110.72;1683362;84;21073;-77
2022/06/09 10:37:25;;;;;;;0.88;0.70;;;;;;;30.63;29.59;99113.89;1636913;87;21068;-77
2022/06/09 10:40:09;;;;;;;1.10;0.75;;;;;;;30.72;29.18;99110.86;1623695;87;21153;-77
2022/06/09 10:42:44;;;;;;;5.05;1.52;;;;;;;30.78;28.59;99113.31;1653723;84;21646;-77
2022/06/09 10:45:45;;;;;;;4.17;0.95;;;;;;;30.84;28.00;99110.35;1693498;84;21084;-77
2022/06/09 10:57:27;;;;;;;5.65;0.90;;;;;;;31.37;27.72;99102.69;1693491;84;21157;-77
2022/06/09 11:00:13;;;;;;;3.15;1.17;;;;;;;31.44;27.39;99098.12;1693577;84;21112;-75
2022/06/09 11:02:44;;;;;;;2.22;1.00;;;;;;;31.46;27.33;99102.01;1693559;84;21124;-77
2022/06/09 11:05:16;;;;;;;1.77;1.00;;;;;;;31.34;27.52;99101.72;1693830;84;21102;-76
2022/06/09 11:08:06;;;;;;;7.80;0.80;;;;;;;31.21;27.22;99094.82;1693509;84;21065;-77
2022/06/09 11:10:45;;;;;;;5.20;1.60;;;;;;;31.03;28.17;99096.13;1693537;84;21129;-77
2022/06/09 11:13:32;;;;;;;1.57;0.80;;;;;;;30.97;27.63;99086.06;1693498;84;21032;-77
2022/06/09 11:16:28;;;;;;;1.50;0.85;;;;;;;31.04;27.90;99093.73;1693734;84;21483;-77
2022/06/09 11:19:44;;;;;;;3.90;1.75;;;;;;;31.13;27.86;99097.15;1672536;84;21052;-77
2022/06/09 11:22:53;;;;;;;1.50;1.10;;;;;;;31.19;27.06;99089.58;1636189;87;21114;-77
2022/06/09 11:25:59;;;;;;;6.65;1.70;;;;;;;31.26;27.30;99085.55;1636887;87;21236;-77
2022/06/09 11:28:56;;;;;;;11.35;1.10;;;;;;;31.34;27.70;99090.84;1701158;84;21067;-77
2022/06/09 11:31:49;;;;;;;1.62;0.80;;;;;;;31.36;27.68;99096.08;1729118;83;21082;-77
2022/06/09 11:34:47;;;;;;;2.92;0.68;;;;;;;31.33;27.83;99091.87;1729561;83;21059;-77
2022/06/09 11:37:22;;;;;;;5.12;1.00;;;;;;;31.25;27.23;99092.02;1728436;83;21072;-77
2022/06/09 11:40:22;;;;;;;3.02;1.00;;;;;;;31.16;27.44;99085.89;1702992;84;21140;-78
2022/06/09 11:43:22;;;;;;;2.30;0.70;;;;;;;31.06;28.08;99095.73;1702665;84;21641;-77
2022/06/09 11:45:54;;;;;;;1.20;0.82;;;;;;;30.93;28.25;99099.66;1701483;84;21074;-77
2022/06/09 11:48:38;;;;;;;1.60;0.80;;;;;;;30.82;28.67;99092.06;1707265;84;21050;-77
2022/06/09 11:51:04;;;;;;;4.25;1.00;;;;;;;30.77;28.78;99091.28;1706833;84;21089;-77
2022/06/09 11:53:44;;;;;;;1.47;0.62;;;;;;;30.81;29.18;99089.01;1707078;84;21125;-77
2022/06/09 11:56:43;;;;;;;4.83;1.60;;;;;;;30.91;28.84;99092.23;1707076;84;21153;-77
2022/06/09 11:59:19;;;;;;;4.22;1.10;;;;;;;31.05;28.68;99083.20;1706936;84;21091;-76
2022/06/09 12:02:08;;;;;;;5.78;1.30;;;;;;;31.24;27.59;99088.99;1706847;84;21584;-77
2022/06/09 12:05:09;;;;;;;1.12;0.75;;;;;;;31.33;28.54;99085.07;1706819;84;21069;-77
2022/06/09 12:07:51;;;;;;;2.70;0.80;;;;;;;31.46;28.16;99084.33;1706917;84;21100;-77
2022/06/09 12:11:08;;;;;;;1.85;0.62;;;;;;;31.59;27.32;99083.59;1707035;84;21620;-77
2022/06/09 12:14:03;;;;;;;0.98;0.90;;;;;;;31.74;27.22;99081.61;1706627;84;21110;-76
2022/06/09 12:16:40;;;;;;;4.67;0.95;;;;;;;31.80;26.75;99088.95;1706528;84;21113;-77
2022/06/09 12:19:23;;;;;;;3.85;0.60;;;;;;;31.78;26.69;99088.31;1706945;84;21089;-77
2022/06/09 12:21:55;;;;;;;3.62;0.98;;;;;;;31.72;26.25;99086.39;1706902;84;21133;-77
2022/06/09 12:24:36;;;;;;;2.05;1.30;;;;;;;31.63;26.95;99083.53;1706807;84;21090;-77